sensor_id;sensor_type;location;lat;lon;timestamp;P1;durP1;ratioP1;P2;durP2;ratioP2
13071;SDS011;6602;58.934;11.166;2023-05-10T00:00:18;3.77;;;1.80;;
13071;SDS011;6602;58.934;11.166;2023-05-10T00:05:20;2.80;;;1.90;;
13071;SDS011;6602;58.934;11.166;2023-05-10T00:10:21;5.40;;;2.00;;
13071;SDS011;6602;58.934;11.166;2023-05-10T00:15:22;2.57;;;1.73;;
13071;SDS011;6602;58.934;11.166;2023-05-10T00:20:23;3.97;;;1.80;;
13071;SDS011;6602;58.934;11.166;2023-05-10T00:25:24;2.67;;;1.90;;
13071;SDS011;6602;58.934;11.166;2023-05-10T00:30:25;3.97;;;1.60;;
13071;SDS011;6602;58.934;11.166;2023-05-10T00:35:26;3.00;;;2.20;;
13071;SDS011;6602;58.934;11.166;2023-05-10T00:40:27;3.77;;;2.00;;
13071;SDS011;6602;58.934;11.166;2023-05-10T00:45:29;2.57;;;1.60;;
13071;SDS011;6602;58.934;11.166;2023-05-10T00:50:34;3.40;;;1.97;;
13071;SDS011;6602;58.934;11.166;2023-05-10T00:55:36;4.13;;;1.67;;
13071;SDS011;6602;58.934;11.166;2023-05-10T01:00:37;2.97;;;1.80;;
13071;SDS011;6602;58.934;11.166;2023-05-10T01:05:41;1.90;;;1.60;;
13071;SDS011;6602;58.934;11.166;2023-05-10T01:10:42;3.13;;;1.73;;
13071;SDS011;6602;58.934;11.166;2023-05-10T01:15:44;5.47;;;1.90;;
13071;SDS011;6602;58.934;11.166;2023-05-10T01:20:47;3.00;;;1.93;;
13071;SDS011;6602;58.934;11.166;2023-05-10T01:47:10;3.37;;;1.80;;
13071;SDS011;6602;58.934;11.166;2023-05-10T01:52:15;2.63;;;2.03;;
13071;SDS011;6602;58.934;11.166;2023-05-10T01:57:19;3.43;;;1.87;;
13071;SDS011;6602;58.934;11.166;2023-05-10T02:02:22;2.63;;;1.90;;
13071;SDS011;6602;58.934;11.166;2023-05-10T02:07:24;2.47;;;1.80;;
13071;SDS011;6602;58.934;11.166;2023-05-10T02:12:28;3.50;;;1.80;;
13071;SDS011;6602;58.934;11.166;2023-05-10T02:17:30;2.47;;;2.00;;
13071;SDS011;6602;58.934;11.166;2023-05-10T02:22:32;2.90;;;1.93;;
13071;SDS011;6602;58.934;11.166;2023-05-10T02:27:35;2.37;;;1.90;;
13071;SDS011;6602;58.934;11.166;2023-05-10T02:32:41;3.90;;;1.90;;
13071;SDS011;6602;58.934;11.166;2023-05-10T02:37:44;3.87;;;2.00;;
13071;SDS011;6602;58.934;11.166;2023-05-10T02:42:50;4.90;;;2.10;;
13071;SDS011;6602;58.934;11.166;2023-05-10T02:47:55;4.40;;;1.97;;
13071;SDS011;6602;58.934;11.166;2023-05-10T02:52:59;3.33;;;1.90;;
13071;SDS011;6602;58.934;11.166;2023-05-10T02:58:02;1.70;;;1.57;;
13071;SDS011;6602;58.934;11.166;2023-05-10T03:03:04;3.53;;;1.83;;
13071;SDS011;6602;58.934;11.166;2023-05-10T03:08:05;3.37;;;2.03;;
13071;SDS011;6602;58.934;11.166;2023-05-10T03:13:09;4.70;;;2.10;;
13071;SDS011;6602;58.934;11.166;2023-05-10T03:18:48;5.00;;;2.10;;
13071;SDS011;6602;58.934;11.166;2023-05-10T03:29:07;3.23;;;1.80;;
13071;SDS011;6602;58.934;11.166;2023-05-10T03:34:10;4.33;;;2.17;;
13071;SDS011;6602;58.934;11.166;2023-05-10T03:39:11;3.53;;;2.23;;
13071;SDS011;6602;58.934;11.166;2023-05-10T03:44:12;4.60;;;2.30;;
13071;SDS011;6602;58.934;11.166;2023-05-10T03:49:19;6.17;;;1.87;;
13071;SDS011;6602;58.934;11.166;2023-05-10T03:54:20;3.50;;;2.10;;
13071;SDS011;6602;58.934;11.166;2023-05-10T03:59:21;2.37;;;1.83;;
13071;SDS011;6602;58.934;11.166;2023-05-10T04:04:22;3.53;;;1.63;;
13071;SDS011;6602;58.934;11.166;2023-05-10T04:09:23;6.67;;;2.30;;
13071;SDS011;6602;58.934;11.166;2023-05-10T04:14:24;2.23;;;1.67;;
13071;SDS011;6602;58.934;11.166;2023-05-10T04:19:28;3.47;;;2.20;;
13071;SDS011;6602;58.934;11.166;2023-05-10T04:24:33;4.10;;;2.03;;
13071;SDS011;6602;58.934;11.166;2023-05-10T04:29:34;5.40;;;2.03;;
13071;SDS011;6602;58.934;11.166;2023-05-10T04:34:35;2.63;;;1.70;;
13071;SDS011;6602;58.934;11.166;2023-05-10T04:39:37;2.90;;;1.90;;
13071;SDS011;6602;58.934;11.166;2023-05-10T04:44:38;5.33;;;2.20;;
13071;SDS011;6602;58.934;11.166;2023-05-10T04:49:39;8.53;;;2.73;;
13071;SDS011;6602;58.934;11.166;2023-05-10T04:54:40;2.65;;;1.80;;
13071;SDS011;6602;58.934;11.166;2023-05-10T04:59:41;4.18;;;1.95;;
13071;SDS011;6602;58.934;11.166;2023-05-10T05:04:42;4.60;;;2.30;;
13071;SDS011;6602;58.934;11.166;2023-05-10T05:09:43;4.00;;;2.07;;
13071;SDS011;6602;58.934;11.166;2023-05-10T05:14:44;3.85;;;2.13;;
13071;SDS011;6602;58.934;11.166;2023-05-10T05:19:45;7.63;;;2.17;;
13071;SDS011;6602;58.934;11.166;2023-05-10T05:24:46;2.20;;;1.75;;
13071;SDS011;6602;58.934;11.166;2023-05-10T05:29:47;4.88;;;2.15;;
13071;SDS011;6602;58.934;11.166;2023-05-10T05:34:48;3.05;;;2.08;;
13071;SDS011;6602;58.934;11.166;2023-05-10T05:39:49;3.22;;;1.98;;
13071;SDS011;6602;58.934;11.166;2023-05-10T05:44:51;4.50;;;1.95;;
13071;SDS011;6602;58.934;11.166;2023-05-10T05:49:52;3.95;;;2.35;;
13071;SDS011;6602;58.934;11.166;2023-05-10T05:54:53;6.25;;;2.15;;
13071;SDS011;6602;58.934;11.166;2023-05-10T06:00:06;2.30;;;1.80;;
13071;SDS011;6602;58.934;11.166;2023-05-10T06:05:07;3.03;;;2.03;;
13071;SDS011;6602;58.934;11.166;2023-05-10T06:10:09;3.08;;;2.17;;
13071;SDS011;6602;58.934;11.166;2023-05-10T06:15:10;4.68;;;1.80;;
13071;SDS011;6602;58.934;11.166;2023-05-10T06:20:11;4.28;;;2.25;;
13071;SDS011;6602;58.934;11.166;2023-05-10T06:25:13;4.60;;;2.05;;
13071;SDS011;6602;58.934;11.166;2023-05-10T06:30:14;7.65;;;2.60;;
13071;SDS011;6602;58.934;11.166;2023-05-10T06:35:15;6.82;;;1.85;;
13071;SDS011;6602;58.934;11.166;2023-05-10T06:40:17;3.92;;;1.65;;
13071;SDS011;6602;58.934;11.166;2023-05-10T06:45:18;5.75;;;2.67;;
13071;SDS011;6602;58.934;11.166;2023-05-10T06:50:19;3.63;;;1.98;;
13071;SDS011;6602;58.934;11.166;2023-05-10T06:55:20;5.93;;;1.85;;
13071;SDS011;6602;58.934;11.166;2023-05-10T07:00:24;3.53;;;1.90;;
13071;SDS011;6602;58.934;11.166;2023-05-10T07:05:25;4.05;;;1.90;;
13071;SDS011;6602;58.934;11.166;2023-05-10T07:10:28;5.13;;;2.90;;
13071;SDS011;6602;58.934;11.166;2023-05-10T07:15:29;4.03;;;1.80;;
13071;SDS011;6602;58.934;11.166;2023-05-10T07:20:30;3.90;;;2.10;;
13071;SDS011;6602;58.934;11.166;2023-05-10T07:25:31;5.72;;;2.28;;
13071;SDS011;6602;58.934;11.166;2023-05-10T07:30:31;2.70;;;1.98;;
13071;SDS011;6602;58.934;11.166;2023-05-10T07:35:32;5.50;;;2.20;;
13071;SDS011;6602;58.934;11.166;2023-05-10T07:40:33;4.32;;;2.30;;
13071;SDS011;6602;58.934;11.166;2023-05-10T07:45:34;3.20;;;2.05;;
13071;SDS011;6602;58.934;11.166;2023-05-10T07:50:36;3.63;;;2.03;;
13071;SDS011;6602;58.934;11.166;2023-05-10T07:55:37;4.13;;;1.80;;
13071;SDS011;6602;58.934;11.166;2023-05-10T08:00:38;3.00;;;2.15;;
13071;SDS011;6602;58.934;11.166;2023-05-10T08:05:40;4.28;;;2.10;;
13071;SDS011;6602;58.934;11.166;2023-05-10T08:10:41;5.53;;;2.00;;
13071;SDS011;6602;58.934;11.166;2023-05-10T08:15:42;4.65;;;2.20;;
13071;SDS011;6602;58.934;11.166;2023-05-10T08:20:43;3.28;;;2.17;;
13071;SDS011;6602;58.934;11.166;2023-05-10T08:25:43;3.53;;;2.33;;
13071;SDS011;6602;58.934;11.166;2023-05-10T08:30:44;4.53;;;2.55;;
13071;SDS011;6602;58.934;11.166;2023-05-10T08:35:49;3.38;;;1.95;;
13071;SDS011;6602;58.934;11.166;2023-05-10T08:40:54;5.45;;;2.10;;
13071;SDS011;6602;58.934;11.166;2023-05-10T08:46:00;6.38;;;2.38;;
13071;SDS011;6602;58.934;11.166;2023-05-10T08:51:03;4.13;;;1.95;;
13071;SDS011;6602;58.934;11.166;2023-05-10T08:56:04;3.38;;;2.00;;
13071;SDS011;6602;58.934;11.166;2023-05-10T09:01:05;3.30;;;2.35;;
13071;SDS011;6602;58.934;11.166;2023-05-10T09:06:08;4.05;;;2.38;;
13071;SDS011;6602;58.934;11.166;2023-05-10T09:11:20;5.70;;;2.08;;
13071;SDS011;6602;58.934;11.166;2023-05-10T09:16:22;4.03;;;2.10;;
13071;SDS011;6602;58.934;11.166;2023-05-10T09:21:24;5.13;;;2.05;;
13071;SDS011;6602;58.934;11.166;2023-05-10T09:26:26;7.15;;;2.22;;
13071;SDS011;6602;58.934;11.166;2023-05-10T09:36:55;1.95;;;1.75;;
13071;SDS011;6602;58.934;11.166;2023-05-10T09:42:05;2.55;;;2.10;;
13071;SDS011;6602;58.934;11.166;2023-05-10T09:47:16;4.53;;;2.30;;
13071;SDS011;6602;58.934;11.166;2023-05-10T09:52:19;6.05;;;2.70;;
13071;SDS011;6602;58.934;11.166;2023-05-10T09:57:23;5.20;;;2.60;;
13071;SDS011;6602;58.934;11.166;2023-05-10T10:02:28;3.65;;;2.00;;
13071;SDS011;6602;58.934;11.166;2023-05-10T10:07:30;5.38;;;1.90;;
13071;SDS011;6602;58.934;11.166;2023-05-10T10:12:31;3.53;;;2.00;;
13071;SDS011;6602;58.934;11.166;2023-05-10T10:17:32;5.22;;;2.08;;
13071;SDS011;6602;58.934;11.166;2023-05-10T10:22:37;3.75;;;1.60;;
13071;SDS011;6602;58.934;11.166;2023-05-10T10:38:37;4.82;;;2.38;;
13071;SDS011;6602;58.934;11.166;2023-05-10T10:49:48;4.45;;;1.90;;
13071;SDS011;6602;58.934;11.166;2023-05-10T10:55:13;2.72;;;1.90;;
13071;SDS011;6602;58.934;11.166;2023-05-10T11:00:25;3.47;;;1.88;;
13071;SDS011;6602;58.934;11.166;2023-05-10T11:10:48;7.18;;;2.20;;
13071;SDS011;6602;58.934;11.166;2023-05-10T11:15:55;3.72;;;2.03;;
13071;SDS011;6602;58.934;11.166;2023-05-10T11:21:00;3.00;;;1.90;;
13071;SDS011;6602;58.934;11.166;2023-05-10T11:26:09;3.83;;;1.83;;
13071;SDS011;6602;58.934;11.166;2023-05-10T11:31:19;5.88;;;2.22;;
13071;SDS011;6602;58.934;11.166;2023-05-10T11:36:35;5.88;;;2.40;;
13071;SDS011;6602;58.934;11.166;2023-05-10T11:41:36;3.75;;;2.15;;
13071;SDS011;6602;58.934;11.166;2023-05-10T11:46:38;4.88;;;2.65;;
13071;SDS011;6602;58.934;11.166;2023-05-10T11:51:39;4.35;;;2.58;;
13071;SDS011;6602;58.934;11.166;2023-05-10T11:56:40;7.57;;;2.42;;
13071;SDS011;6602;58.934;11.166;2023-05-10T12:01:41;3.90;;;2.40;;
13071;SDS011;6602;58.934;11.166;2023-05-10T12:06:46;3.78;;;2.75;;
13071;SDS011;6602;58.934;11.166;2023-05-10T12:11:55;4.82;;;2.38;;
13071;SDS011;6602;58.934;11.166;2023-05-10T12:16:59;4.07;;;2.40;;
13071;SDS011;6602;58.934;11.166;2023-05-10T12:22:00;7.93;;;3.40;;
13071;SDS011;6602;58.934;11.166;2023-05-10T12:27:17;3.50;;;2.28;;
13071;SDS011;6602;58.934;11.166;2023-05-10T12:32:18;11.65;;;2.78;;
13071;SDS011;6602;58.934;11.166;2023-05-10T12:37:23;7.38;;;3.28;;
13071;SDS011;6602;58.934;11.166;2023-05-10T12:42:33;3.80;;;2.60;;
13071;SDS011;6602;58.934;11.166;2023-05-10T12:47:39;3.17;;;2.65;;
13071;SDS011;6602;58.934;11.166;2023-05-10T12:52:40;7.28;;;2.92;;
13071;SDS011;6602;58.934;11.166;2023-05-10T12:57:47;3.70;;;2.60;;
13071;SDS011;6602;58.934;11.166;2023-05-10T13:02:48;4.63;;;3.30;;
13071;SDS011;6602;58.934;11.166;2023-05-10T13:07:52;3.97;;;2.75;;
13071;SDS011;6602;58.934;11.166;2023-05-10T13:12:53;3.40;;;2.63;;
13071;SDS011;6602;58.934;11.166;2023-05-10T13:17:54;5.32;;;3.15;;
13071;SDS011;6602;58.934;11.166;2023-05-10T13:23:07;6.35;;;2.70;;
13071;SDS011;6602;58.934;11.166;2023-05-10T13:28:08;9.20;;;3.10;;
13071;SDS011;6602;58.934;11.166;2023-05-10T13:33:09;4.65;;;2.88;;
13071;SDS011;6602;58.934;11.166;2023-05-10T13:38:10;5.75;;;3.17;;
13071;SDS011;6602;58.934;11.166;2023-05-10T13:43:12;4.43;;;2.97;;
13071;SDS011;6602;58.934;11.166;2023-05-10T13:48:14;5.15;;;2.80;;
13071;SDS011;6602;58.934;11.166;2023-05-10T13:53:16;6.07;;;2.90;;
13071;SDS011;6602;58.934;11.166;2023-05-10T13:58:17;5.57;;;3.03;;
13071;SDS011;6602;58.934;11.166;2023-05-10T14:03:18;4.20;;;2.92;;
13071;SDS011;6602;58.934;11.166;2023-05-10T14:08:19;5.78;;;2.47;;
13071;SDS011;6602;58.934;11.166;2023-05-10T14:13:20;7.53;;;2.53;;
13071;SDS011;6602;58.934;11.166;2023-05-10T14:18:34;3.67;;;2.83;;
13071;SDS011;6602;58.934;11.166;2023-05-10T14:23:40;6.28;;;3.28;;
13071;SDS011;6602;58.934;11.166;2023-05-10T14:28:41;4.53;;;2.95;;
13071;SDS011;6602;58.934;11.166;2023-05-10T14:33:42;2.63;;;1.95;;
13071;SDS011;6602;58.934;11.166;2023-05-10T14:38:43;4.10;;;2.15;;
13071;SDS011;6602;58.934;11.166;2023-05-10T14:43:47;3.60;;;2.25;;
13071;SDS011;6602;58.934;11.166;2023-05-10T14:48:47;3.88;;;2.20;;
13071;SDS011;6602;58.934;11.166;2023-05-10T14:53:51;5.28;;;2.30;;
13071;SDS011;6602;58.934;11.166;2023-05-10T14:58:52;6.13;;;2.50;;
13071;SDS011;6602;58.934;11.166;2023-05-10T15:03:53;3.75;;;2.10;;
13071;SDS011;6602;58.934;11.166;2023-05-10T15:08:54;6.30;;;2.78;;
13071;SDS011;6602;58.934;11.166;2023-05-10T15:13:54;4.97;;;2.55;;
13071;SDS011;6602;58.934;11.166;2023-05-10T15:18:55;9.15;;;2.50;;
13071;SDS011;6602;58.934;11.166;2023-05-10T15:23:56;4.70;;;2.10;;
13071;SDS011;6602;58.934;11.166;2023-05-10T15:29:03;3.90;;;2.30;;
13071;SDS011;6602;58.934;11.166;2023-05-10T15:34:04;4.10;;;2.50;;
13071;SDS011;6602;58.934;11.166;2023-05-10T15:39:05;3.97;;;2.42;;
13071;SDS011;6602;58.934;11.166;2023-05-10T15:44:05;3.17;;;2.15;;
13071;SDS011;6602;58.934;11.166;2023-05-10T15:49:06;5.13;;;2.40;;
13071;SDS011;6602;58.934;11.166;2023-05-10T15:54:09;5.22;;;2.65;;
13071;SDS011;6602;58.934;11.166;2023-05-10T15:59:11;4.55;;;2.70;;
13071;SDS011;6602;58.934;11.166;2023-05-10T16:04:31;4.80;;;2.65;;
13071;SDS011;6602;58.934;11.166;2023-05-10T16:09:32;5.68;;;2.78;;
13071;SDS011;6602;58.934;11.166;2023-05-10T16:14:33;7.50;;;2.50;;
13071;SDS011;6602;58.934;11.166;2023-05-10T16:19:34;5.95;;;2.25;;
13071;SDS011;6602;58.934;11.166;2023-05-10T16:24:54;6.05;;;2.58;;
13071;SDS011;6602;58.934;11.166;2023-05-10T16:29:56;7.45;;;2.90;;
13071;SDS011;6602;58.934;11.166;2023-05-10T16:34:57;6.97;;;2.72;;
13071;SDS011;6602;58.934;11.166;2023-05-10T16:39:59;3.85;;;2.60;;
13071;SDS011;6602;58.934;11.166;2023-05-10T16:45:03;4.22;;;2.47;;
13071;SDS011;6602;58.934;11.166;2023-05-10T16:50:20;7.45;;;2.95;;
13071;SDS011;6602;58.934;11.166;2023-05-10T16:55:21;4.22;;;2.40;;
13071;SDS011;6602;58.934;11.166;2023-05-10T17:00:28;3.03;;;2.35;;
13071;SDS011;6602;58.934;11.166;2023-05-10T17:05:29;2.90;;;2.17;;
13071;SDS011;6602;58.934;11.166;2023-05-10T17:10:45;4.78;;;2.60;;
13071;SDS011;6602;58.934;11.166;2023-05-10T17:15:48;5.03;;;2.85;;
13071;SDS011;6602;58.934;11.166;2023-05-10T17:20:52;5.10;;;2.90;;
13071;SDS011;6602;58.934;11.166;2023-05-10T17:25:53;3.30;;;2.22;;
13071;SDS011;6602;58.934;11.166;2023-05-10T17:30:55;4.90;;;2.35;;
13071;SDS011;6602;58.934;11.166;2023-05-10T17:35:57;5.22;;;2.63;;
13071;SDS011;6602;58.934;11.166;2023-05-10T17:41:00;5.65;;;2.63;;
13071;SDS011;6602;58.934;11.166;2023-05-10T17:46:01;4.20;;;2.28;;
13071;SDS011;6602;58.934;11.166;2023-05-10T17:51:03;3.72;;;2.40;;
13071;SDS011;6602;58.934;11.166;2023-05-10T17:56:11;4.15;;;2.38;;
13071;SDS011;6602;58.934;11.166;2023-05-10T18:01:12;2.78;;;2.40;;
13071;SDS011;6602;58.934;11.166;2023-05-10T18:06:21;5.07;;;2.80;;
13071;SDS011;6602;58.934;11.166;2023-05-10T18:11:29;3.95;;;2.40;;
13071;SDS011;6602;58.934;11.166;2023-05-10T18:16:31;4.63;;;2.60;;
13071;SDS011;6602;58.934;11.166;2023-05-10T18:21:32;3.58;;;2.83;;
13071;SDS011;6602;58.934;11.166;2023-05-10T18:26:33;4.10;;;2.42;;
13071;SDS011;6602;58.934;11.166;2023-05-10T18:31:34;5.47;;;2.63;;
13071;SDS011;6602;58.934;11.166;2023-05-10T18:36:35;3.47;;;2.50;;
13071;SDS011;6602;58.934;11.166;2023-05-10T18:41:39;3.50;;;2.30;;
13071;SDS011;6602;58.934;11.166;2023-05-10T18:46:43;3.72;;;2.92;;
13071;SDS011;6602;58.934;11.166;2023-05-10T18:51:43;5.25;;;2.70;;
13071;SDS011;6602;58.934;11.166;2023-05-10T18:56:45;3.75;;;2.17;;
13071;SDS011;6602;58.934;11.166;2023-05-10T19:01:46;4.68;;;2.65;;
13071;SDS011;6602;58.934;11.166;2023-05-10T19:06:48;4.57;;;2.80;;
13071;SDS011;6602;58.934;11.166;2023-05-10T19:11:49;5.20;;;2.72;;
13071;SDS011;6602;58.934;11.166;2023-05-10T19:16:53;3.90;;;2.53;;
13071;SDS011;6602;58.934;11.166;2023-05-10T19:21:57;9.15;;;2.45;;
13071;SDS011;6602;58.934;11.166;2023-05-10T19:27:01;3.67;;;2.42;;
13071;SDS011;6602;58.934;11.166;2023-05-10T19:32:02;6.10;;;3.00;;
13071;SDS011;6602;58.934;11.166;2023-05-10T19:37:04;4.45;;;2.90;;
13071;SDS011;6602;58.934;11.166;2023-05-10T19:42:07;3.63;;;2.83;;
13071;SDS011;6602;58.934;11.166;2023-05-10T19:47:10;5.90;;;2.42;;
13071;SDS011;6602;58.934;11.166;2023-05-10T19:52:17;4.60;;;3.13;;
13071;SDS011;6602;58.934;11.166;2023-05-10T19:57:20;3.47;;;3.10;;
13071;SDS011;6602;58.934;11.166;2023-05-10T20:02:21;6.65;;;3.50;;
13071;SDS011;6602;58.934;11.166;2023-05-10T20:07:22;5.55;;;3.35;;
13071;SDS011;6602;58.934;11.166;2023-05-10T20:12:33;5.18;;;3.20;;
13071;SDS011;6602;58.934;11.166;2023-05-10T20:17:34;8.35;;;3.75;;
13071;SDS011;6602;58.934;11.166;2023-05-10T20:22:35;5.90;;;3.13;;
13071;SDS011;6602;58.934;11.166;2023-05-10T20:27:42;5.50;;;3.10;;
13071;SDS011;6602;58.934;11.166;2023-05-10T20:32:46;4.88;;;3.20;;
13071;SDS011;6602;58.934;11.166;2023-05-10T20:37:50;5.47;;;3.97;;
13071;SDS011;6602;58.934;11.166;2023-05-10T20:42:51;5.35;;;3.65;;
13071;SDS011;6602;58.934;11.166;2023-05-10T20:47:53;5.47;;;3.13;;
13071;SDS011;6602;58.934;11.166;2023-05-10T20:52:54;7.83;;;4.70;;
13071;SDS011;6602;58.934;11.166;2023-05-10T20:57:55;5.50;;;3.93;;
13071;SDS011;6602;58.934;11.166;2023-05-10T21:02:56;6.20;;;4.00;;
13071;SDS011;6602;58.934;11.166;2023-05-10T21:07:57;7.27;;;3.93;;
13071;SDS011;6602;58.934;11.166;2023-05-10T21:12:58;8.67;;;3.73;;
13071;SDS011;6602;58.934;11.166;2023-05-10T21:17:59;9.30;;;3.80;;
13071;SDS011;6602;58.934;11.166;2023-05-10T21:23:00;4.93;;;3.27;;
13071;SDS011;6602;58.934;11.166;2023-05-10T21:28:01;4.20;;;3.53;;
13071;SDS011;6602;58.934;11.166;2023-05-10T21:33:02;7.40;;;3.67;;
13071;SDS011;6602;58.934;11.166;2023-05-10T21:38:02;6.00;;;3.80;;
13071;SDS011;6602;58.934;11.166;2023-05-10T21:43:04;6.33;;;3.37;;
13071;SDS011;6602;58.934;11.166;2023-05-10T21:48:05;5.07;;;3.97;;
13071;SDS011;6602;58.934;11.166;2023-05-10T21:53:07;8.00;;;3.97;;
13071;SDS011;6602;58.934;11.166;2023-05-10T21:58:08;6.10;;;3.80;;
13071;SDS011;6602;58.934;11.166;2023-05-10T22:03:09;5.47;;;4.30;;
13071;SDS011;6602;58.934;11.166;2023-05-10T22:08:10;7.10;;;3.67;;
13071;SDS011;6602;58.934;11.166;2023-05-10T22:13:11;7.73;;;3.70;;
13071;SDS011;6602;58.934;11.166;2023-05-10T22:18:12;6.50;;;4.53;;
13071;SDS011;6602;58.934;11.166;2023-05-10T22:23:12;10.07;;;4.20;;
13071;SDS011;6602;58.934;11.166;2023-05-10T22:28:13;7.87;;;4.07;;
13071;SDS011;6602;58.934;11.166;2023-05-10T22:33:15;7.33;;;4.17;;
13071;SDS011;6602;58.934;11.166;2023-05-10T22:38:16;7.30;;;4.30;;
13071;SDS011;6602;58.934;11.166;2023-05-10T22:43:17;4.67;;;3.60;;
13071;SDS011;6602;58.934;11.166;2023-05-10T22:48:18;5.90;;;3.37;;
13071;SDS011;6602;58.934;11.166;2023-05-10T22:53:20;4.37;;;3.67;;
13071;SDS011;6602;58.934;11.166;2023-05-10T22:58:21;4.63;;;3.70;;
13071;SDS011;6602;58.934;11.166;2023-05-10T23:03:21;5.87;;;3.80;;
13071;SDS011;6602;58.934;11.166;2023-05-10T23:08:23;7.70;;;3.83;;
13071;SDS011;6602;58.934;11.166;2023-05-10T23:13:24;3.90;;;3.03;;
13071;SDS011;6602;58.934;11.166;2023-05-10T23:18:29;4.17;;;3.30;;
13071;SDS011;6602;58.934;11.166;2023-05-10T23:23:29;5.07;;;4.03;;
13071;SDS011;6602;58.934;11.166;2023-05-10T23:28:33;10.67;;;3.50;;
13071;SDS011;6602;58.934;11.166;2023-05-10T23:33:33;5.20;;;3.63;;
13071;SDS011;6602;58.934;11.166;2023-05-10T23:38:36;6.17;;;3.93;;
13071;SDS011;6602;58.934;11.166;2023-05-10T23:43:38;4.97;;;3.10;;
13071;SDS011;6602;58.934;11.166;2023-05-10T23:48:39;5.57;;;3.00;;
13071;SDS011;6602;58.934;11.166;2023-05-10T23:53:42;6.67;;;3.57;;
13071;SDS011;6602;58.934;11.166;2023-05-10T23:58:47;5.00;;;3.10;;
